sensor_id;sensor_type;location;lat;lon;timestamp;P1;durP1;ratioP1;P2;durP2;ratioP2
56824;SDS011;42705;50.326;18.772;2023-03-01T00:01:22;97.30;;;37.40;;
56824;SDS011;42705;50.326;18.772;2023-03-01T00:06:46;82.60;;;31.90;;
56824;SDS011;42705;50.326;18.772;2023-03-01T00:12:08;83.40;;;32.90;;
56824;SDS011;42705;50.326;18.772;2023-03-01T00:17:31;86.90;;;32.40;;
56824;SDS011;42705;50.326;18.772;2023-03-01T00:22:53;88.10;;;34.40;;
56824;SDS011;42705;50.326;18.772;2023-03-01T00:28:15;80.30;;;33.40;;
56824;SDS011;42705;50.326;18.772;2023-03-01T00:33:37;75.70;;;31.80;;
56824;SDS011;42705;50.326;18.772;2023-03-01T00:39:00;81.20;;;31.90;;
56824;SDS011;42705;50.326;18.772;2023-03-01T00:44:24;69.90;;;30.40;;
56824;SDS011;42705;50.326;18.772;2023-03-01T00:49:46;72.10;;;30.00;;
56824;SDS011;42705;50.326;18.772;2023-03-01T00:55:08;63.40;;;27.80;;
56824;SDS011;42705;50.326;18.772;2023-03-01T01:00:30;71.10;;;28.70;;
56824;SDS011;42705;50.326;18.772;2023-03-01T01:05:52;69.30;;;27.90;;
56824;SDS011;42705;50.326;18.772;2023-03-01T01:11:15;63.40;;;27.20;;
56824;SDS011;42705;50.326;18.772;2023-03-01T01:16:37;60.00;;;26.20;;
56824;SDS011;42705;50.326;18.772;2023-03-01T01:22:00;57.30;;;27.00;;
56824;SDS011;42705;50.326;18.772;2023-03-01T01:27:22;57.80;;;25.60;;
56824;SDS011;42705;50.326;18.772;2023-03-01T01:32:44;57.20;;;24.40;;
56824;SDS011;42705;50.326;18.772;2023-03-01T01:38:06;65.80;;;28.90;;
56824;SDS011;42705;50.326;18.772;2023-03-01T01:43:30;56.10;;;25.00;;
56824;SDS011;42705;50.326;18.772;2023-03-01T01:48:58;58.00;;;25.70;;
56824;SDS011;42705;50.326;18.772;2023-03-01T01:54:24;66.00;;;27.70;;
56824;SDS011;42705;50.326;18.772;2023-03-01T01:59:54;71.40;;;32.50;;
56824;SDS011;42705;50.326;18.772;2023-03-01T02:11:08;91.20;;;37.50;;
56824;SDS011;42705;50.326;18.772;2023-03-01T02:16:32;106.50;;;40.70;;
56824;SDS011;42705;50.326;18.772;2023-03-01T02:22:41;82.80;;;34.20;;
56824;SDS011;42705;50.326;18.772;2023-03-01T02:38:58;80.00;;;35.00;;
56824;SDS011;42705;50.326;18.772;2023-03-01T02:44:23;86.70;;;37.00;;
56824;SDS011;42705;50.326;18.772;2023-03-01T02:49:45;88.10;;;36.80;;
56824;SDS011;42705;50.326;18.772;2023-03-01T02:55:08;92.90;;;40.00;;
56824;SDS011;42705;50.326;18.772;2023-03-01T03:00:34;90.50;;;37.70;;
56824;SDS011;42705;50.326;18.772;2023-03-01T03:06:08;81.80;;;35.80;;
56824;SDS011;42705;50.326;18.772;2023-03-01T03:11:31;79.70;;;32.60;;
56824;SDS011;42705;50.326;18.772;2023-03-01T03:16:54;98.90;;;41.40;;
56824;SDS011;42705;50.326;18.772;2023-03-01T03:22:16;86.00;;;37.30;;
56824;SDS011;42705;50.326;18.772;2023-03-01T03:27:39;95.40;;;37.10;;
56824;SDS011;42705;50.326;18.772;2023-03-01T03:33:02;91.80;;;37.20;;
56824;SDS011;42705;50.326;18.772;2023-03-01T03:38:24;80.70;;;34.30;;
56824;SDS011;42705;50.326;18.772;2023-03-01T03:43:46;77.90;;;33.30;;
56824;SDS011;42705;50.326;18.772;2023-03-01T03:49:10;83.30;;;32.50;;
56824;SDS011;42705;50.326;18.772;2023-03-01T03:54:32;71.90;;;31.30;;
56824;SDS011;42705;50.326;18.772;2023-03-01T03:59:54;83.50;;;34.80;;
56824;SDS011;42705;50.326;18.772;2023-03-01T04:05:17;72.50;;;31.40;;
56824;SDS011;42705;50.326;18.772;2023-03-01T04:10:41;75.40;;;32.20;;
56824;SDS011;42705;50.326;18.772;2023-03-01T04:16:07;69.40;;;29.70;;
56824;SDS011;42705;50.326;18.772;2023-03-01T04:21:29;80.90;;;32.80;;
56824;SDS011;42705;50.326;18.772;2023-03-01T04:26:51;71.10;;;31.90;;
56824;SDS011;42705;50.326;18.772;2023-03-01T04:32:13;70.40;;;30.90;;
56824;SDS011;42705;50.326;18.772;2023-03-01T04:37:37;76.40;;;33.90;;
56824;SDS011;42705;50.326;18.772;2023-03-01T04:43:00;79.10;;;33.20;;
56824;SDS011;42705;50.326;18.772;2023-03-01T04:48:25;77.10;;;32.50;;
56824;SDS011;42705;50.326;18.772;2023-03-01T04:53:47;68.10;;;30.50;;
56824;SDS011;42705;50.326;18.772;2023-03-01T04:59:09;76.00;;;30.70;;
56824;SDS011;42705;50.326;18.772;2023-03-01T05:04:31;66.90;;;29.90;;
56824;SDS011;42705;50.326;18.772;2023-03-01T05:09:53;74.70;;;30.60;;
56824;SDS011;42705;50.326;18.772;2023-03-01T05:15:16;85.50;;;35.30;;
56824;SDS011;42705;50.326;18.772;2023-03-01T05:20:38;120.00;;;48.80;;
56824;SDS011;42705;50.326;18.772;2023-03-01T05:26:01;109.70;;;45.70;;
56824;SDS011;42705;50.326;18.772;2023-03-01T05:31:25;123.70;;;51.80;;
56824;SDS011;42705;50.326;18.772;2023-03-01T05:36:47;122.40;;;53.00;;
56824;SDS011;42705;50.326;18.772;2023-03-01T05:42:10;137.00;;;55.20;;
56824;SDS011;42705;50.326;18.772;2023-03-01T05:47:33;132.60;;;51.80;;
56824;SDS011;42705;50.326;18.772;2023-03-01T05:58:41;130.30;;;50.70;;
56824;SDS011;42705;50.326;18.772;2023-03-01T06:04:03;141.80;;;57.10;;
56824;SDS011;42705;50.326;18.772;2023-03-01T06:09:26;137.00;;;54.40;;
56824;SDS011;42705;50.326;18.772;2023-03-01T06:14:48;183.20;;;66.90;;
56824;SDS011;42705;50.326;18.772;2023-03-01T06:20:15;159.60;;;67.20;;
56824;SDS011;42705;50.326;18.772;2023-03-01T06:25:37;154.00;;;61.40;;
56824;SDS011;42705;50.326;18.772;2023-03-01T06:30:59;155.30;;;63.70;;
56824;SDS011;42705;50.326;18.772;2023-03-01T06:36:21;147.10;;;61.00;;
56824;SDS011;42705;50.326;18.772;2023-03-01T06:41:54;150.50;;;61.70;;
56824;SDS011;42705;50.326;18.772;2023-03-01T06:47:18;155.50;;;61.70;;
56824;SDS011;42705;50.326;18.772;2023-03-01T06:52:44;150.50;;;61.50;;
56824;SDS011;42705;50.326;18.772;2023-03-01T06:58:10;162.20;;;58.90;;
56824;SDS011;42705;50.326;18.772;2023-03-01T07:03:32;170.40;;;67.80;;
56824;SDS011;42705;50.326;18.772;2023-03-01T07:08:54;159.00;;;61.40;;
56824;SDS011;42705;50.326;18.772;2023-03-01T07:14:19;157.40;;;62.30;;
56824;SDS011;42705;50.326;18.772;2023-03-01T07:19:41;155.20;;;61.30;;
56824;SDS011;42705;50.326;18.772;2023-03-01T07:25:04;147.30;;;59.70;;
56824;SDS011;42705;50.326;18.772;2023-03-01T07:30:26;151.60;;;59.50;;
56824;SDS011;42705;50.326;18.772;2023-03-01T07:41:23;134.40;;;52.90;;
56824;SDS011;42705;50.326;18.772;2023-03-01T07:46:49;125.40;;;49.90;;
56824;SDS011;42705;50.326;18.772;2023-03-01T07:52:22;130.60;;;51.90;;
56824;SDS011;42705;50.326;18.772;2023-03-01T07:58:16;115.70;;;47.30;;
56824;SDS011;42705;50.326;18.772;2023-03-01T08:03:37;113.20;;;46.60;;
56824;SDS011;42705;50.326;18.772;2023-03-01T08:09:03;101.00;;;41.90;;
56824;SDS011;42705;50.326;18.772;2023-03-01T08:14:25;112.20;;;43.50;;
56824;SDS011;42705;50.326;18.772;2023-03-01T08:20:00;100.10;;;40.40;;
56824;SDS011;42705;50.326;18.772;2023-03-01T08:25:28;91.50;;;38.20;;
56824;SDS011;42705;50.326;18.772;2023-03-01T08:31:01;74.00;;;32.60;;
56824;SDS011;42705;50.326;18.772;2023-03-01T08:36:45;74.40;;;30.60;;
56824;SDS011;42705;50.326;18.772;2023-03-01T08:42:11;64.40;;;26.90;;
56824;SDS011;42705;50.326;18.772;2023-03-01T08:47:38;55.50;;;25.00;;
56824;SDS011;42705;50.326;18.772;2023-03-01T08:53:00;56.20;;;24.40;;
56824;SDS011;42705;50.326;18.772;2023-03-01T08:58:22;60.00;;;27.30;;
56824;SDS011;42705;50.326;18.772;2023-03-01T09:03:45;54.30;;;25.90;;
56824;SDS011;42705;50.326;18.772;2023-03-01T09:09:10;49.40;;;22.10;;
56824;SDS011;42705;50.326;18.772;2023-03-01T09:14:38;43.60;;;21.20;;
56824;SDS011;42705;50.326;18.772;2023-03-01T09:20:02;40.10;;;18.60;;
56824;SDS011;42705;50.326;18.772;2023-03-01T09:25:27;32.10;;;15.50;;
56824;SDS011;42705;50.326;18.772;2023-03-01T09:30:49;37.80;;;17.80;;
56824;SDS011;42705;50.326;18.772;2023-03-01T09:36:12;40.50;;;20.00;;
56824;SDS011;42705;50.326;18.772;2023-03-01T09:41:44;39.80;;;20.30;;
56824;SDS011;42705;50.326;18.772;2023-03-01T09:47:18;51.90;;;23.80;;
56824;SDS011;42705;50.326;18.772;2023-03-01T10:09:42;47.20;;;22.50;;
56824;SDS011;42705;50.326;18.772;2023-03-01T10:26:03;45.60;;;22.20;;
56824;SDS011;42705;50.326;18.772;2023-03-01T10:31:43;44.80;;;21.30;;
56824;SDS011;42705;50.326;18.772;2023-03-01T10:37:12;39.70;;;20.00;;
56824;SDS011;42705;50.326;18.772;2023-03-01T10:42:43;40.10;;;19.20;;
56824;SDS011;42705;50.326;18.772;2023-03-01T10:53:40;26.80;;;15.50;;
56824;SDS011;42705;50.326;18.772;2023-03-01T10:59:04;30.80;;;16.80;;
56824;SDS011;42705;50.326;18.772;2023-03-01T11:04:55;30.50;;;17.00;;
56824;SDS011;42705;50.326;18.772;2023-03-01T11:10:24;25.80;;;15.20;;
56824;SDS011;42705;50.326;18.772;2023-03-01T11:16:00;27.10;;;14.40;;
56824;SDS011;42705;50.326;18.772;2023-03-01T11:21:25;34.20;;;14.10;;
56824;SDS011;42705;50.326;18.772;2023-03-01T11:26:53;31.40;;;15.80;;
56824;SDS011;42705;50.326;18.772;2023-03-01T11:32:16;33.60;;;15.30;;
56824;SDS011;42705;50.326;18.772;2023-03-01T11:37:41;27.20;;;14.40;;
56824;SDS011;42705;50.326;18.772;2023-03-01T12:40:41;22.00;;;13.70;;
56824;SDS011;42705;50.326;18.772;2023-03-01T12:52:02;18.10;;;14.00;;
56824;SDS011;42705;50.326;18.772;2023-03-01T12:57:37;14.40;;;11.90;;
56824;SDS011;42705;50.326;18.772;2023-03-01T13:08:42;15.10;;;13.50;;
56824;SDS011;42705;50.326;18.772;2023-03-01T13:19:41;18.00;;;14.30;;
56824;SDS011;42705;50.326;18.772;2023-03-01T13:25:19;13.90;;;12.30;;
56824;SDS011;42705;50.326;18.772;2023-03-01T13:30:42;15.30;;;13.60;;
56824;SDS011;42705;50.326;18.772;2023-03-01T13:36:04;14.40;;;12.90;;
56824;SDS011;42705;50.326;18.772;2023-03-01T13:58:14;13.60;;;12.20;;
56824;SDS011;42705;50.326;18.772;2023-03-01T14:03:44;13.00;;;10.90;;
56824;SDS011;42705;50.326;18.772;2023-03-01T14:09:17;13.90;;;11.20;;
56824;SDS011;42705;50.326;18.772;2023-03-01T14:14:46;15.30;;;12.20;;
56824;SDS011;42705;50.326;18.772;2023-03-01T14:25:35;13.50;;;12.10;;
56824;SDS011;42705;50.326;18.772;2023-03-01T14:30:59;13.90;;;11.80;;
56824;SDS011;42705;50.326;18.772;2023-03-01T14:36:26;16.20;;;12.20;;
56824;SDS011;42705;50.326;18.772;2023-03-01T14:41:50;19.30;;;13.40;;
56824;SDS011;42705;50.326;18.772;2023-03-01T14:47:19;15.00;;;12.00;;
56824;SDS011;42705;50.326;18.772;2023-03-01T14:52:45;15.30;;;12.00;;
56824;SDS011;42705;50.326;18.772;2023-03-01T14:58:12;17.30;;;13.40;;
56824;SDS011;42705;50.326;18.772;2023-03-01T15:03:37;17.60;;;13.10;;
56824;SDS011;42705;50.326;18.772;2023-03-01T15:09:04;18.90;;;13.70;;
56824;SDS011;42705;50.326;18.772;2023-03-01T15:14:43;21.40;;;15.30;;
56824;SDS011;42705;50.326;18.772;2023-03-01T15:20:06;22.00;;;14.00;;
56824;SDS011;42705;50.326;18.772;2023-03-01T15:25:43;17.20;;;12.30;;
56824;SDS011;42705;50.326;18.772;2023-03-01T15:31:28;23.40;;;13.10;;
56824;SDS011;42705;50.326;18.772;2023-03-01T15:36:57;22.40;;;14.90;;
56824;SDS011;42705;50.326;18.772;2023-03-01T15:47:50;23.10;;;15.30;;
56824;SDS011;42705;50.326;18.772;2023-03-01T15:53:14;31.00;;;19.30;;
56824;SDS011;42705;50.326;18.772;2023-03-01T15:58:37;28.70;;;18.30;;
56824;SDS011;42705;50.326;18.772;2023-03-01T16:04:00;40.80;;;23.10;;
56824;SDS011;42705;50.326;18.772;2023-03-01T16:09:24;39.80;;;22.20;;
56824;SDS011;42705;50.326;18.772;2023-03-01T16:14:47;58.30;;;29.60;;
56824;SDS011;42705;50.326;18.772;2023-03-01T16:20:12;74.40;;;35.40;;
56824;SDS011;42705;50.326;18.772;2023-03-01T16:25:37;97.60;;;46.00;;
56824;SDS011;42705;50.326;18.772;2023-03-01T16:30:59;123.60;;;55.60;;
56824;SDS011;42705;50.326;18.772;2023-03-01T16:36:23;104.70;;;44.90;;
56824;SDS011;42705;50.326;18.772;2023-03-01T16:41:49;115.50;;;50.80;;
56824;SDS011;42705;50.326;18.772;2023-03-01T16:47:11;154.80;;;62.10;;
56824;SDS011;42705;50.326;18.772;2023-03-01T16:52:33;118.00;;;55.40;;
56824;SDS011;42705;50.326;18.772;2023-03-01T16:57:55;90.10;;;39.30;;
56824;SDS011;42705;50.326;18.772;2023-03-01T17:03:17;89.30;;;35.80;;
56824;SDS011;42705;50.326;18.772;2023-03-01T17:08:39;86.50;;;38.30;;
56824;SDS011;42705;50.326;18.772;2023-03-01T17:14:02;100.70;;;41.80;;
56824;SDS011;42705;50.326;18.772;2023-03-01T17:19:24;110.90;;;45.50;;
56824;SDS011;42705;50.326;18.772;2023-03-01T17:24:46;94.90;;;41.20;;
56824;SDS011;42705;50.326;18.772;2023-03-01T17:30:09;82.20;;;36.00;;
56824;SDS011;42705;50.326;18.772;2023-03-01T17:35:34;93.60;;;37.50;;
56824;SDS011;42705;50.326;18.772;2023-03-01T17:40:58;102.70;;;40.60;;
56824;SDS011;42705;50.326;18.772;2023-03-01T17:46:21;90.70;;;35.70;;
56824;SDS011;42705;50.326;18.772;2023-03-01T17:51:44;77.50;;;32.10;;
56824;SDS011;42705;50.326;18.772;2023-03-01T17:57:06;76.30;;;32.00;;
56824;SDS011;42705;50.326;18.772;2023-03-01T18:02:28;94.90;;;37.80;;
56824;SDS011;42705;50.326;18.772;2023-03-01T18:07:51;113.00;;;44.30;;
56824;SDS011;42705;50.326;18.772;2023-03-01T18:13:13;107.90;;;42.60;;
56824;SDS011;42705;50.326;18.772;2023-03-01T18:18:35;104.70;;;41.10;;
56824;SDS011;42705;50.326;18.772;2023-03-01T18:23:58;97.90;;;39.10;;
56824;SDS011;42705;50.326;18.772;2023-03-01T18:29:20;98.30;;;38.40;;
56824;SDS011;42705;50.326;18.772;2023-03-01T18:34:42;82.70;;;33.70;;
56824;SDS011;42705;50.326;18.772;2023-03-01T18:40:09;83.80;;;33.20;;
56824;SDS011;42705;50.326;18.772;2023-03-01T18:45:33;88.90;;;37.70;;
56824;SDS011;42705;50.326;18.772;2023-03-01T18:50:55;108.80;;;41.70;;
56824;SDS011;42705;50.326;18.772;2023-03-01T18:56:18;97.50;;;36.50;;
56824;SDS011;42705;50.326;18.772;2023-03-01T19:01:40;96.90;;;39.50;;
56824;SDS011;42705;50.326;18.772;2023-03-01T19:07:03;77.70;;;32.80;;
56824;SDS011;42705;50.326;18.772;2023-03-01T19:12:25;80.70;;;34.00;;
56824;SDS011;42705;50.326;18.772;2023-03-01T19:23:11;68.00;;;30.40;;
56824;SDS011;42705;50.326;18.772;2023-03-01T19:28:33;79.10;;;33.30;;
56824;SDS011;42705;50.326;18.772;2023-03-01T19:33:56;71.10;;;31.30;;
56824;SDS011;42705;50.326;18.772;2023-03-01T19:39:19;68.10;;;28.90;;
56824;SDS011;42705;50.326;18.772;2023-03-01T19:44:41;67.30;;;27.20;;
56824;SDS011;42705;50.326;18.772;2023-03-01T19:50:03;63.30;;;28.00;;
56824;SDS011;42705;50.326;18.772;2023-03-01T19:55:26;65.90;;;26.50;;
56824;SDS011;42705;50.326;18.772;2023-03-01T20:00:48;60.80;;;25.80;;
56824;SDS011;42705;50.326;18.772;2023-03-01T20:06:18;63.30;;;27.20;;
56824;SDS011;42705;50.326;18.772;2023-03-01T20:11:42;66.30;;;27.60;;
56824;SDS011;42705;50.326;18.772;2023-03-01T20:22:27;67.10;;;26.40;;
56824;SDS011;42705;50.326;18.772;2023-03-01T20:27:50;86.10;;;32.70;;
56824;SDS011;42705;50.326;18.772;2023-03-01T20:33:12;89.50;;;35.90;;
56824;SDS011;42705;50.326;18.772;2023-03-01T20:38:37;86.10;;;34.50;;
56824;SDS011;42705;50.326;18.772;2023-03-01T20:44:00;93.10;;;37.80;;
56824;SDS011;42705;50.326;18.772;2023-03-01T20:49:24;110.20;;;44.60;;
56824;SDS011;42705;50.326;18.772;2023-03-01T20:54:46;100.00;;;39.40;;
56824;SDS011;42705;50.326;18.772;2023-03-01T21:00:09;111.50;;;43.60;;
56824;SDS011;42705;50.326;18.772;2023-03-01T21:05:31;91.50;;;38.20;;
56824;SDS011;42705;50.326;18.772;2023-03-01T21:10:54;88.20;;;35.30;;
56824;SDS011;42705;50.326;18.772;2023-03-01T21:16:17;87.80;;;36.50;;
56824;SDS011;42705;50.326;18.772;2023-03-01T21:21:40;91.00;;;39.60;;
56824;SDS011;42705;50.326;18.772;2023-03-01T21:27:02;84.00;;;34.00;;
56824;SDS011;42705;50.326;18.772;2023-03-01T21:32:27;87.80;;;38.00;;
56824;SDS011;42705;50.326;18.772;2023-03-01T21:37:49;100.40;;;38.30;;
56824;SDS011;42705;50.326;18.772;2023-03-01T21:43:11;104.10;;;39.10;;
56824;SDS011;42705;50.326;18.772;2023-03-01T21:48:33;97.20;;;39.70;;
56824;SDS011;42705;50.326;18.772;2023-03-01T21:53:56;106.00;;;40.60;;
56824;SDS011;42705;50.326;18.772;2023-03-01T21:59:19;101.20;;;40.50;;
56824;SDS011;42705;50.326;18.772;2023-03-01T22:04:42;108.90;;;42.90;;
56824;SDS011;42705;50.326;18.772;2023-03-01T22:15:28;109.40;;;38.70;;
56824;SDS011;42705;50.326;18.772;2023-03-01T22:20:52;120.20;;;41.80;;
56824;SDS011;42705;50.326;18.772;2023-03-01T22:26:23;108.70;;;41.40;;
56824;SDS011;42705;50.326;18.772;2023-03-01T22:31:47;92.00;;;35.80;;
56824;SDS011;42705;50.326;18.772;2023-03-01T22:37:09;95.50;;;34.20;;
56824;SDS011;42705;50.326;18.772;2023-03-01T22:42:31;90.30;;;35.80;;
56824;SDS011;42705;50.326;18.772;2023-03-01T22:47:53;97.50;;;36.80;;
56824;SDS011;42705;50.326;18.772;2023-03-01T22:58:39;78.50;;;29.90;;
56824;SDS011;42705;50.326;18.772;2023-03-01T23:04:01;77.90;;;33.00;;
56824;SDS011;42705;50.326;18.772;2023-03-01T23:09:24;80.80;;;33.80;;
56824;SDS011;42705;50.326;18.772;2023-03-01T23:14:48;83.10;;;33.70;;
56824;SDS011;42705;50.326;18.772;2023-03-01T23:20:10;80.20;;;31.20;;
56824;SDS011;42705;50.326;18.772;2023-03-01T23:25:34;92.10;;;34.00;;
56824;SDS011;42705;50.326;18.772;2023-03-01T23:30:57;98.50;;;37.60;;
56824;SDS011;42705;50.326;18.772;2023-03-01T23:36:26;108.50;;;40.50;;
56824;SDS011;42705;50.326;18.772;2023-03-01T23:41:49;94.70;;;36.90;;
56824;SDS011;42705;50.326;18.772;2023-03-01T23:47:12;87.40;;;33.00;;
56824;SDS011;42705;50.326;18.772;2023-03-01T23:52:35;77.30;;;29.90;;
56824;SDS011;42705;50.326;18.772;2023-03-01T23:58:02;67.90;;;27.30;;
